Terminal Aerodrome Forecast
Issued by NWS Sterling, VA

Current Version | Previous Version | Graphics & Text | Print | Product List | Glossary On
Versions: 1 2 3 4 5 6 7 8 9 10 11 12 13 14 15 16 17 18 19 20 21 22 23 24 25 26 27 28 29 30 31
000
FTUS41 KLWX 270546
TAFIAD
TAF
KIAD 270546Z 2706/2812 18006KT P6SM VCSH SCT050 BKN090
     FM271800 21006KT P6SM -SHRA VCTS BKN060CB
     FM272200 19006KT P6SM BKN110
     FM280700 VRB03KT P6SM FEW050 SCT140=

USA.gov is the U.S. government's official web portal to all federal, state and local government web resources and services.